Red Oak, Arkansas
Current Conditions -  °F | °C
As of 2:53 PM on Friday 19 Dec 2014 (Local Time) from KHOT Reporting Station
Haze Haze  
Wind Chill: 43°   Ceiling: 700
Heat Index: 43°   Visibility: 6mi
Dew Point: 40°   Wind: 3mph
Humidity: 89%   Direction: 50°NE
Pressure: 30.19"   Gusts: NA
Location:  34.5331°N, 93.0035°W
Report Text: KHOT 192053Z AUTO 05003KT 6SM BR OVC007 06/04 A3019 RMK AO2 SLP224 60000 T00610044 55005
Loading
Personal Weather Stations






























Interactive Weather Map New forecast layout! Learn more

10-Day Weather Forecast

Advertisements
Track Severe Weather on mobile